createdAt,value
2019-01-26T00:00:31.447Z,76.42
2019-01-26T00:01:31.460Z,76.42
2019-01-26T00:02:31.478Z,75.95
2019-01-26T00:03:31.754Z,76.23
2019-01-26T00:04:31.519Z,76.23
2019-01-26T00:05:31.523Z,76.23
2019-01-26T00:06:31.532Z,76.32
2019-01-26T00:07:31.554Z,76.23
2019-01-26T00:08:31.821Z,76.23
2019-01-26T00:09:31.832Z,76.42
2019-01-26T00:10:31.594Z,76.23
2019-01-26T00:11:31.613Z,76.23
2019-01-26T00:12:31.618Z,76.23
2019-01-26T00:13:31.638Z,76.42
2019-01-26T00:14:31.915Z,76.04
2019-01-26T00:15:31.964Z,76.23
2019-01-26T00:16:31.938Z,76.42
2019-01-26T00:17:31.696Z,76.14
2019-01-26T00:18:33.181Z,76.04
2019-01-26T00:19:31.982Z,76.23
2019-01-26T00:20:36.240Z,75.85
2019-01-26T00:21:31.749Z,76.23
2019-01-26T00:22:31.769Z,76.32
2019-01-26T00:23:32.050Z,76.32
2019-01-26T00:24:32.055Z,76.23
2019-01-26T00:25:32.069Z,75.85
2019-01-26T00:26:36.219Z,75.85
2019-01-26T00:27:32.110Z,76.23
2019-01-26T00:28:31.858Z,76.32
2019-01-26T00:29:31.871Z,76.23
2019-01-26T00:30:31.882Z,76.32
2019-01-26T00:31:32.152Z,76.23
2019-01-26T00:32:31.921Z,76.32
2019-01-26T00:33:31.932Z,76.14
2019-01-26T00:34:31.940Z,76.23
2019-01-26T00:35:32.219Z,76.61
2019-01-26T00:36:31.977Z,76.42
2019-01-26T00:37:32.274Z,76.42
2019-01-26T00:38:32.008Z,76.42
2019-01-26T00:39:32.283Z,76.7
2019-01-26T00:40:32.283Z,76.7
2019-01-26T00:41:32.300Z,76.51
2019-01-26T00:42:32.317Z,76.23
2019-01-26T00:43:32.069Z,76.23
2019-01-26T00:44:32.084Z,76.42
2019-01-26T00:45:32.358Z,76.7
2019-01-26T00:46:32.123Z,76.32
2019-01-26T00:47:32.129Z,76.23
2019-01-26T00:48:32.145Z,76.61
2019-01-26T00:49:32.158Z,76.42
2019-01-26T00:50:32.430Z,76.7
2019-01-26T00:51:32.449Z,76.7
2019-01-26T00:52:32.212Z,76.42
2019-01-26T00:53:32.218Z,76.42
2019-01-26T00:54:32.504Z,76.42
2019-01-26T00:55:32.512Z,76.7
2019-01-26T00:56:32.267Z,76.7
2019-01-26T00:57:32.276Z,76.61
2019-01-26T00:58:32.290Z,76.51
2019-01-26T00:59:32.571Z,76.42
2019-01-26T01:00:32.576Z,76.61
2019-01-26T01:01:32.331Z,76.42
2019-01-26T01:02:32.354Z,76.51
2019-01-26T01:03:32.717Z,76.23
2019-01-26T01:04:32.385Z,76.42
2019-01-26T01:05:32.656Z,76.42
2019-01-26T01:06:32.404Z,76.23
2019-01-26T01:07:32.679Z,76.7
2019-01-26T01:08:32.707Z,76.51
2019-01-26T01:09:32.449Z,76.42
2019-01-26T01:10:32.464Z,76.61
2019-01-26T01:11:32.483Z,76.7
2019-01-26T01:12:32.751Z,76.23
2019-01-26T01:13:32.764Z,76.42
2019-01-26T01:14:32.524Z,76.55
2019-01-26T01:15:32.803Z,76.51
2019-01-26T01:16:38.435Z,76.61
2019-01-26T01:17:32.834Z,76.7
2019-01-26T01:18:32.852Z,76.42
2019-01-26T01:19:32.871Z,76.42
2019-01-26T01:20:32.609Z,76.42
2019-01-26T01:21:32.630Z,76.32
2019-01-26T01:22:32.904Z,76.32
2019-01-26T01:23:33.041Z,76.32
2019-01-26T01:24:32.930Z,76.23
2019-01-26T01:25:32.689Z,76.42
2019-01-26T01:26:32.697Z,76.42
2019-01-26T01:27:32.970Z,76.32
2019-01-26T01:28:32.726Z,76.42
2019-01-26T01:29:32.742Z,76.74
2019-01-26T01:30:33.027Z,76.27
2019-01-26T01:31:33.038Z,76.23
2019-01-26T01:32:33.047Z,76.23
2019-01-26T01:33:32.800Z,76.36
2019-01-26T01:34:33.076Z,76.65
2019-01-26T01:35:32.836Z,76.46
2019-01-26T01:36:32.841Z,76.36
2019-01-26T01:37:32.858Z,76.65
2019-01-26T01:38:33.140Z,76.74
2019-01-26T01:39:33.274Z,76.84
2019-01-26T01:40:33.161Z,76.55
2019-01-26T01:41:32.916Z,76.51
2019-01-26T01:42:33.193Z,76.55
2019-01-26T01:43:32.942Z,76.65
2019-01-26T01:44:32.968Z,76.74
2019-01-26T01:45:33.249Z,76.8
2019-01-26T01:46:32.986Z,76.93
2019-01-26T01:47:33.015Z,76.74
2019-01-26T01:48:33.016Z,76.8
2019-01-26T01:49:33.033Z,76.74
2019-01-26T01:50:33.305Z,76.99
2019-01-26T01:51:33.061Z,77.03
2019-01-26T01:52:33.177Z,76.74
2019-01-26T01:53:33.353Z,76.84
2019-01-26T01:54:33.106Z,76.99
2019-01-26T01:55:33.125Z,77.03
2019-01-26T01:56:33.142Z,77.12
2019-01-26T01:57:33.413Z,76.84
2019-01-26T01:58:33.176Z,76.93
2019-01-26T01:59:33.437Z,76.65
2019-01-26T02:00:33.458Z,76.74
2019-01-26T02:01:33.219Z,76.46
2019-01-26T02:02:33.222Z,76.55
2019-01-26T02:03:33.506Z,76.55
2019-01-26T02:04:33.508Z,76.7
2019-01-26T02:05:33.271Z,76.46
2019-01-26T02:06:33.559Z,76.51
2019-01-26T02:07:33.552Z,76.7
2019-01-26T02:08:33.318Z,76.46
2019-01-26T02:09:33.586Z,76.55
2019-01-26T02:10:33.616Z,76.55
2019-01-26T02:11:33.370Z,76.74
2019-01-26T02:12:33.376Z,76.65
2019-01-26T02:15:16.060Z,76.55
2019-01-26T02:16:16.326Z,76.55
2019-01-26T02:17:16.083Z,76.84
2019-01-26T02:18:16.098Z,76.84
2019-01-26T02:19:16.115Z,76.55
2019-01-26T02:20:16.138Z,77.22
2019-01-26T02:21:16.144Z,77.12
2019-01-26T02:22:16.416Z,76.93
2019-01-26T02:23:16.171Z,76.84
2019-01-26T02:24:16.185Z,76.93
2019-01-26T02:25:16.203Z,77.03
2019-01-26T02:26:16.216Z,77.22
2019-01-26T02:27:16.229Z,77.03
2019-01-26T02:28:16.246Z,76.84
2019-01-26T02:29:16.517Z,77.22
2019-01-26T02:30:16.281Z,77.03
2019-01-26T02:31:16.552Z,77.12
2019-01-26T02:32:16.564Z,77.12
2019-01-26T02:33:16.318Z,77.22
2019-01-26T02:34:16.333Z,77.22
2019-01-26T02:35:16.607Z,77.31
2019-01-26T02:36:16.620Z,77.12
2019-01-26T02:37:16.388Z,77.31
2019-01-26T02:38:16.656Z,77.4
2019-01-26T02:39:16.408Z,77.4
2019-01-26T02:40:16.421Z,77.5
2019-01-26T02:41:16.694Z,77.4
2019-01-26T02:42:16.483Z,77.5
2019-01-26T02:43:16.465Z,77.5
2019-01-26T02:44:16.739Z,77.5
2019-01-26T02:45:16.496Z,77.59
2019-01-26T02:46:16.509Z,77.59
2019-01-26T02:47:16.522Z,77.31
2019-01-26T02:48:16.795Z,77.31
2019-01-26T02:49:16.551Z,77.31
2019-01-26T02:50:16.575Z,77.31
2019-01-26T02:51:16.581Z,77.12
2019-01-26T02:52:16.598Z,77.12
2019-01-26T02:53:16.869Z,77.31
2019-01-26T02:54:16.626Z,77.22
2019-01-26T02:55:16.691Z,77.59
2019-01-26T02:56:16.924Z,77.97
2019-01-26T02:57:16.670Z,77.97
2019-01-26T02:58:16.948Z,77.69
2019-01-26T02:59:16.975Z,77.59
2019-01-26T03:00:19.869Z,77.5
2019-01-26T03:01:16.733Z,77.4
2019-01-26T03:02:16.744Z,77.5
2019-01-26T03:03:16.767Z,77.59
2019-01-26T03:04:17.031Z,77.59
2019-01-26T03:05:16.788Z,77.59
2019-01-26T03:06:16.808Z,77.88
2019-01-26T03:07:17.078Z,77.78
2019-01-26T03:08:16.836Z,77.78
2019-01-26T03:09:16.848Z,77.4
2019-01-26T03:10:17.121Z,77.69
2019-01-26T03:11:17.143Z,77.59
2019-01-26T03:12:17.150Z,77.59
2019-01-26T03:13:16.910Z,77.59
2019-01-26T03:14:16.921Z,77.78
2019-01-26T03:15:17.192Z,77.88
2019-01-26T03:16:16.954Z,77.97
2019-01-26T03:17:17.222Z,77.69
2019-01-26T03:18:17.240Z,77.97
2019-01-26T03:19:16.995Z,77.78
2019-01-26T03:20:17.009Z,77.5
2019-01-26T03:21:17.282Z,77.5
2019-01-26T03:22:17.037Z,77.5
2019-01-26T03:23:17.312Z,77.5
2019-01-26T03:24:17.070Z,77.5
2019-01-26T03:25:17.083Z,77.5
2019-01-26T03:26:17.355Z,77.88
2019-01-26T03:27:17.127Z,77.78
2019-01-26T03:28:17.142Z,77.88
2019-01-26T03:29:17.410Z,77.69
2019-01-26T03:30:17.167Z,77.88
2019-01-26T03:31:17.446Z,77.78
2019-01-26T03:32:17.212Z,77.88
2019-01-26T03:33:17.327Z,77.88
2019-01-26T03:34:17.476Z,78.07
2019-01-26T03:35:17.232Z,77.78
2019-01-26T03:36:17.504Z,77.69
2019-01-26T03:37:17.258Z,77.78
2019-01-26T03:38:17.283Z,77.88
2019-01-26T03:39:17.549Z,77.88
2019-01-26T03:40:17.308Z,77.78
2019-01-26T03:41:17.580Z,77.78
2019-01-26T03:42:17.335Z,77.59
2019-01-26T03:43:17.612Z,77.78
2019-01-26T03:44:17.366Z,77.97
2019-01-26T03:45:17.386Z,78.16
2019-01-26T03:46:17.391Z,78.35
2019-01-26T03:47:17.664Z,78.35
2019-01-26T03:48:17.681Z,78.16
2019-01-26T03:49:17.441Z,78.26
2019-01-26T03:50:17.451Z,78.45
2019-01-26T03:51:17.470Z,77.88
2019-01-26T03:52:17.491Z,78.35
2019-01-26T03:53:17.753Z,78.07
2019-01-26T03:54:17.519Z,78.07
2019-01-26T03:55:17.787Z,78.35
2019-01-26T03:56:17.802Z,78.35
2019-01-26T03:57:17.556Z,78.26
2019-01-26T03:58:17.575Z,78.07
2019-01-26T03:59:17.585Z,78.26
2019-01-26T04:00:17.871Z,78.16
2019-01-26T04:01:17.614Z,78.26
2019-01-26T04:02:17.889Z,78.26
2019-01-26T04:03:17.644Z,78.26
2019-01-26T04:04:17.917Z,78.16
2019-01-26T04:05:17.947Z,78.16
2019-01-26T04:06:17.689Z,78.26
2019-01-26T04:07:17.964Z,78.26
2019-01-26T04:08:17.716Z,78.35
2019-01-26T04:09:17.995Z,78.73
2019-01-26T04:10:17.757Z,78.45
2019-01-26T04:11:18.022Z,78.83
2019-01-26T04:12:17.780Z,78.64
2019-01-26T04:13:18.051Z,78.45
2019-01-26T04:14:18.873Z,78.54
2019-01-26T04:15:18.079Z,78.64
2019-01-26T04:16:17.838Z,78.54
2019-01-26T04:17:24.321Z,78.54
2019-01-26T04:18:17.866Z,78.64
2019-01-26T04:19:17.893Z,78.73
2019-01-26T04:20:17.897Z,78.64
2019-01-26T04:21:17.911Z,78.83
2019-01-26T04:22:18.195Z,78.83
2019-01-26T04:23:17.944Z,78.73
2019-01-26T04:24:17.959Z,78.73
2019-01-26T04:25:17.969Z,78.92
2019-01-26T04:26:18.246Z,78.73
2019-01-26T04:27:17.998Z,78.64
2019-01-26T04:28:18.022Z,78.73
2019-01-26T04:29:18.032Z,78.73
2019-01-26T04:30:18.319Z,78.83
2019-01-26T04:31:18.061Z,78.73
2019-01-26T04:32:18.078Z,78.73
2019-01-26T04:33:18.086Z,78.73
2019-01-26T04:34:18.363Z,78.73
2019-01-26T04:35:18.118Z,78.45
2019-01-26T04:36:18.395Z,79.39
2019-01-26T04:37:18.148Z,78.54
2019-01-26T04:38:18.430Z,78.64
2019-01-26T04:39:18.181Z,79.21
2019-01-26T04:40:18.464Z,79.02
2019-01-26T04:41:18.207Z,78.64
2019-01-26T04:42:18.480Z,78.92
2019-01-26T04:43:18.252Z,79.11
2019-01-26T04:44:18.510Z,79.02
2019-01-26T04:45:18.527Z,79.02
2019-01-26T04:46:18.546Z,79.11
2019-01-26T04:47:18.297Z,79.11
2019-01-26T04:48:18.569Z,78.92
2019-01-26T04:49:18.594Z,79.02
2019-01-26T04:50:18.341Z,79.02
2019-01-26T04:51:18.617Z,78.96
2019-01-26T04:52:18.378Z,79.21
2019-01-26T04:53:18.648Z,79.21
2019-01-26T04:54:18.403Z,79.02
2019-01-26T04:55:18.676Z,79.02
2019-01-26T04:56:18.747Z,78.92
2019-01-26T04:57:18.447Z,79.06
2019-01-26T04:58:18.459Z,79.11
2019-01-26T04:59:18.476Z,79.11
2019-01-26T05:00:18.489Z,79.02
2019-01-26T05:01:18.508Z,79.11
2019-01-26T05:02:18.782Z,78.83
2019-01-26T05:03:18.541Z,79.11
2019-01-26T05:04:18.549Z,79.25
2019-01-26T05:05:18.566Z,79.15
2019-01-26T05:06:18.843Z,79.72
2019-01-26T05:07:18.600Z,79.63
2019-01-26T05:08:18.612Z,79.34
2019-01-26T05:09:18.881Z,79.53
2019-01-26T05:10:18.895Z,78.83
2019-01-26T05:11:18.913Z,79.72
2019-01-26T05:12:18.672Z,78.54
2019-01-26T05:13:18.944Z,79.15
2019-01-26T05:14:18.704Z,79.72
2019-01-26T05:15:18.717Z,79.58
2019-01-26T05:16:18.987Z,79.11
2019-01-26T05:17:19.004Z,79.06
2019-01-26T05:18:19.017Z,79.63
2019-01-26T05:19:18.774Z,79.53
2019-01-26T05:20:18.802Z,79.25
2019-01-26T05:21:18.812Z,79.3
2019-01-26T05:22:19.073Z,79.06
2019-01-26T05:23:18.831Z,79.63
2019-01-26T05:24:18.850Z,79.15
2019-01-26T05:25:19.143Z,78.96
2019-01-26T05:26:18.888Z,79.34
2019-01-26T05:27:19.158Z,79.25
2019-01-26T05:28:18.907Z,79.72
2019-01-26T05:29:19.180Z,79.53
2019-01-26T05:30:18.937Z,79.91
2019-01-26T05:31:18.957Z,79.91
2019-01-26T05:32:19.224Z,79.63
2019-01-26T05:33:18.985Z,79.63
2019-01-26T05:34:18.998Z,79.82
2019-01-26T05:35:19.018Z,80
2019-01-26T05:36:19.027Z,79.91
2019-01-26T05:37:19.304Z,79.82
2019-01-26T05:38:19.057Z,79.34
2019-01-26T05:39:20.031Z,80
2019-01-26T05:40:19.360Z,80
2019-01-26T05:41:19.101Z,80
2019-01-26T05:42:19.380Z,79.63
2019-01-26T05:43:19.130Z,80
2019-01-26T05:44:19.402Z,79.72
2019-01-26T05:45:19.427Z,79.82
2019-01-26T05:46:19.434Z,79.82
2019-01-26T05:47:19.466Z,79.72
2019-01-26T05:48:19.206Z,79.63
2019-01-26T05:49:19.223Z,79.82
2019-01-26T05:50:19.232Z,80.1
2019-01-26T05:51:19.615Z,79.82
2019-01-26T05:52:19.529Z,79.82
2019-01-26T05:53:19.286Z,79.91
2019-01-26T05:54:19.298Z,80
2019-01-26T05:55:19.570Z,80
2019-01-26T05:56:19.324Z,79.91
2019-01-26T05:57:19.598Z,79.82
2019-01-26T05:58:19.394Z,80.1
2019-01-26T05:59:19.369Z,80.38
2019-01-26T06:00:19.644Z,80.29
2019-01-26T06:01:19.400Z,80.38
2019-01-26T06:02:19.675Z,80.38
2019-01-26T06:03:19.691Z,80
2019-01-26T06:04:19.707Z,80.38
2019-01-26T06:05:19.719Z,80.67
2019-01-26T06:06:19.732Z,80.38
2019-01-26T06:07:19.490Z,80.95
2019-01-26T06:08:19.762Z,81.05
2019-01-26T06:09:19.520Z,80.86
2019-01-26T06:10:19.547Z,80.86
2019-01-26T06:11:19.808Z,80.86
2019-01-26T06:12:19.840Z,80.67
2019-01-26T06:13:19.839Z,80.86
2019-01-26T06:14:19.868Z,80.86
2019-01-26T06:15:19.610Z,81.14
2019-01-26T06:16:19.986Z,81.33
2019-01-26T06:17:19.639Z,81.43
2019-01-26T06:18:19.938Z,81.33
2019-01-26T06:19:19.930Z,81.33
2019-01-26T06:20:19.705Z,81.05
2019-01-26T06:21:19.698Z,80.95
2019-01-26T06:22:19.983Z,81.24
2019-01-26T06:23:19.988Z,81.33
2019-01-26T06:24:20.009Z,81.24
2019-01-26T06:25:20.019Z,81.24
2019-01-26T06:26:20.044Z,81.43
2019-01-26T06:27:20.046Z,81.24
2019-01-26T06:28:20.066Z,81.05
2019-01-26T06:29:19.819Z,80.86
2019-01-26T06:30:20.116Z,80.95
2019-01-26T06:31:20.111Z,80.86
2019-01-26T06:32:20.135Z,81.14
2019-01-26T06:33:20.139Z,81.14
2019-01-26T06:34:19.906Z,80.95
2019-01-26T06:35:19.912Z,81.24
2019-01-26T06:36:19.936Z,81.24
2019-01-26T06:37:20.198Z,81.24
2019-01-26T06:38:20.213Z,81.33
2019-01-26T06:39:20.022Z,81.05
2019-01-26T06:40:20.254Z,81.14
2019-01-26T06:41:19.999Z,81.24
2019-01-26T06:42:20.031Z,81.05
2019-01-26T06:43:20.028Z,81.05
2019-01-26T06:44:20.313Z,81.24
2019-01-26T06:45:20.314Z,81.33
2019-01-26T06:46:20.341Z,81.24
2019-01-26T06:47:20.091Z,81.05
2019-01-26T06:48:20.381Z,81.05
2019-01-26T06:49:20.121Z,81.43
2019-01-26T06:50:20.409Z,81.24
2019-01-26T06:51:20.407Z,81.33
2019-01-26T06:52:20.426Z,81.14
2019-01-26T06:53:20.180Z,81.33
2019-01-26T06:54:20.467Z,81.33
2019-01-26T06:55:20.473Z,81.05
2019-01-26T06:56:20.505Z,81.05
2019-01-26T06:57:20.241Z,81.99
2019-01-26T06:58:20.528Z,81.81
2019-01-26T06:59:20.271Z,81.9
2019-01-26T07:00:20.558Z,81.43
2019-01-26T07:01:20.559Z,81.81
2019-01-26T07:02:20.585Z,81.81
2019-01-26T07:03:20.332Z,81.71
2019-01-26T07:04:20.636Z,81.43
2019-01-26T07:05:20.621Z,81.9
2019-01-26T07:06:20.653Z,81.71
2019-01-26T07:07:20.390Z,81.71
2019-01-26T07:08:20.688Z,81.81
2019-01-26T07:09:20.421Z,81.62
2019-01-26T07:10:20.707Z,81.81
2019-01-26T07:11:20.455Z,81.71
2019-01-26T07:12:20.739Z,81.81
2019-01-26T07:13:20.489Z,81.52
2019-01-26T07:14:20.753Z,81.52
2019-01-26T07:15:20.774Z,81.52
2019-01-26T07:16:20.792Z,82.28
2019-01-26T07:17:20.543Z,81.71
2019-01-26T07:18:20.832Z,81.81
2019-01-26T07:19:20.584Z,81.99
2019-01-26T07:20:20.862Z,82.09
2019-01-26T07:21:20.601Z,81.62
2019-01-26T07:22:20.634Z,81.99
2019-01-26T07:23:20.633Z,80.95
2019-01-26T07:24:20.917Z,81.14
2019-01-26T07:25:20.664Z,80.95
2019-01-26T07:26:20.951Z,81.71
2019-01-26T07:27:20.953Z,81.81
2019-01-26T07:28:20.980Z,81.9
2019-01-26T07:29:20.984Z,81.62
2019-01-26T07:30:21.008Z,81.62
2019-01-26T07:31:21.016Z,81.47
2019-01-26T07:32:20.782Z,81.62
2019-01-26T07:33:20.792Z,81.37
2019-01-26T07:34:21.065Z,81.99
2019-01-26T07:35:21.078Z,81.09
2019-01-26T07:36:20.837Z,81.09
2019-01-26T07:37:20.850Z,81.24
2019-01-26T07:38:21.135Z,81.05
2019-01-26T07:39:20.879Z,81.09
2019-01-26T07:40:21.162Z,81.18
2019-01-26T07:41:20.906Z,81.66
2019-01-26T07:42:21.202Z,81.71
2019-01-26T07:43:21.196Z,81.75
2019-01-26T07:44:21.225Z,81.85
2019-01-26T07:45:21.228Z,81.47
2019-01-26T07:46:21.252Z,81.52
2019-01-26T07:47:20.999Z,81.47
2019-01-26T07:48:21.017Z,81.94
2019-01-26T07:49:21.028Z,81.75
2019-01-26T07:50:21.303Z,81.85
2019-01-26T07:51:21.316Z,81.75
2019-01-26T07:52:21.333Z,81.66
2019-01-26T07:53:21.346Z,81.75
2019-01-26T07:54:22.001Z,81.56
2019-01-26T07:55:21.381Z,81.94
2019-01-26T07:56:21.133Z,81.94
2019-01-26T07:57:21.149Z,81.18
2019-01-26T07:58:21.165Z,81.85
2019-01-26T07:59:22.347Z,82.23
2019-01-26T08:00:21.196Z,82.04
2019-01-26T08:01:21.211Z,82.42
2019-01-26T08:02:21.484Z,82.04
2019-01-26T08:03:21.501Z,81.27
2019-01-26T08:04:21.517Z,81.37
2019-01-26T08:05:21.531Z,80.99
2019-01-26T08:06:21.545Z,80.71
2019-01-26T08:07:21.562Z,80.99
2019-01-26T08:08:21.575Z,81.09
2019-01-26T08:09:21.331Z,81.27
2019-01-26T08:10:21.606Z,81.27
2019-01-26T08:11:21.629Z,81.94
2019-01-26T08:12:21.639Z,82.23
2019-01-26T08:13:21.659Z,81.66
2019-01-26T08:14:21.666Z,81.94
2019-01-26T08:15:21.685Z,82.04
2019-01-26T08:16:21.698Z,81.47
2019-01-26T08:17:21.711Z,81.56
2019-01-26T08:18:26.347Z,81.94
2019-01-26T08:19:21.488Z,81.94
2019-01-26T08:20:21.504Z,81.56
2019-01-26T08:21:21.517Z,81.75
2019-01-26T08:22:21.532Z,81.94
2019-01-26T08:23:21.548Z,81.09
2019-01-26T08:24:21.821Z,81.56
2019-01-26T08:25:21.836Z,81.85
2019-01-26T08:26:21.855Z,81.94
2019-01-26T08:27:21.868Z,81.56
2019-01-26T08:28:21.626Z,81.47
2019-01-26T08:29:21.640Z,80.9
2019-01-26T08:30:21.916Z,81.94
2019-01-26T08:31:21.673Z,82.04
2019-01-26T08:32:21.687Z,81.75
2019-01-26T08:33:21.706Z,81.75
2019-01-26T08:34:21.978Z,81.56
2019-01-26T08:35:21.995Z,81.47
2019-01-26T08:36:22.008Z,81.66
2019-01-26T08:37:21.763Z,82.04
2019-01-26T08:38:21.780Z,81.18
2019-01-26T08:39:21.796Z,81.47
2019-01-26T08:40:22.072Z,82.04
2019-01-26T08:41:22.085Z,82.32
2019-01-26T08:42:22.113Z,82.13
2019-01-26T08:43:21.857Z,81.47
2019-01-26T08:44:22.151Z,82.04
2019-01-26T08:45:21.887Z,81.94
2019-01-26T08:46:22.177Z,81.56
2019-01-26T08:47:22.176Z,81.66
2019-01-26T08:48:22.211Z,81.09
2019-01-26T08:49:21.950Z,81.75
2019-01-26T08:50:22.240Z,81.66
2019-01-26T08:51:21.982Z,81.85
2019-01-26T08:52:22.267Z,82.13
2019-01-26T08:53:22.271Z,81.85
2019-01-26T08:54:22.304Z,81.09
2019-01-26T08:55:22.043Z,81.18
2019-01-26T08:56:22.326Z,81.27
2019-01-26T08:57:22.333Z,81.85
2019-01-26T08:58:22.093Z,81.75
2019-01-26T08:59:22.106Z,81.56
2019-01-26T09:00:22.125Z,82.04
2019-01-26T09:01:22.396Z,82.32
2019-01-26T09:02:27.979Z,81.37
2019-01-26T09:03:22.168Z,81.09
2019-01-26T09:04:22.182Z,81.66
2019-01-26T09:05:22.461Z,81.56
2019-01-26T09:06:22.473Z,80.9
2019-01-26T09:07:22.485Z,81.27
2019-01-26T09:08:22.503Z,81.85
2019-01-26T09:09:22.259Z,81.56
2019-01-26T09:10:22.278Z,81.66
2019-01-26T09:11:22.553Z,82.13
2019-01-26T09:12:22.563Z,82.51
2019-01-26T09:13:22.323Z,82.32
2019-01-26T09:14:22.341Z,81.85
2019-01-26T09:15:22.355Z,82.08
2019-01-26T09:16:22.626Z,82.13
2019-01-26T09:17:22.386Z,82.04
2019-01-26T09:18:22.662Z,82.51
2019-01-26T09:19:22.674Z,82.13
2019-01-26T09:20:22.690Z,82.04
2019-01-26T09:21:22.708Z,81.98
2019-01-26T09:22:22.463Z,81.09
2019-01-26T09:23:22.529Z,81.75
2019-01-26T09:24:22.492Z,82.23
2019-01-26T09:25:22.513Z,81.98
2019-01-26T09:26:22.524Z,81.79
2019-01-26T09:27:22.539Z,81.88
2019-01-26T09:28:22.870Z,82.08
2019-01-26T09:29:22.833Z,81.98
2019-01-26T09:30:22.846Z,82.27
2019-01-26T09:31:22.607Z,82.27
2019-01-26T09:32:22.617Z,82.46
2019-01-26T09:33:22.890Z,82.74
2019-01-26T09:34:22.650Z,82.65
2019-01-26T09:35:22.667Z,82.65
2019-01-26T09:36:22.942Z,82.74
2019-01-26T09:37:22.698Z,83.22
2019-01-26T09:38:22.713Z,82.84
2019-01-26T09:39:22.986Z,82.93
2019-01-26T09:40:23.003Z,82.55
2019-01-26T09:41:22.761Z,82.65
2019-01-26T09:42:23.032Z,82.65
2019-01-26T09:43:23.100Z,83.12
2019-01-26T09:44:22.805Z,82.93
2019-01-26T09:45:23.082Z,82.55
2019-01-26T09:46:22.838Z,82.93
2019-01-26T09:47:23.111Z,82.84
2019-01-26T09:48:23.177Z,82.93
2019-01-26T09:49:22.884Z,82.55
2019-01-26T09:50:23.158Z,82.74
2019-01-26T09:51:22.918Z,82.46
2019-01-26T09:52:23.191Z,82.46
2019-01-26T09:53:22.949Z,82.55
2019-01-26T09:54:22.963Z,83.03
2019-01-26T09:55:23.239Z,83.03
2019-01-26T09:56:23.256Z,82.08
2019-01-26T09:57:23.268Z,83.03
2019-01-26T09:58:23.026Z,82.55
2019-01-26T09:59:23.301Z,82.65
2019-01-26T10:00:23.320Z,82.65
2019-01-26T10:01:23.072Z,83.5
2019-01-26T10:02:23.351Z,82.84
2019-01-26T10:03:23.414Z,83.12
2019-01-26T10:04:23.380Z,82.65
2019-01-26T10:05:23.137Z,82.84
2019-01-26T10:06:23.152Z,82.46
2019-01-26T10:07:23.428Z,82.36
2019-01-26T10:08:23.494Z,82.36
2019-01-26T10:09:23.459Z,82.27
2019-01-26T10:10:23.472Z,82.17
2019-01-26T10:11:23.489Z,82.93
2019-01-26T10:12:23.248Z,82.55
2019-01-26T10:13:23.261Z,82.55
2019-01-26T10:14:23.537Z,82.27
2019-01-26T10:15:23.294Z,82.08
2019-01-26T10:16:23.569Z,81.98
2019-01-26T10:17:23.325Z,82.74
2019-01-26T10:18:23.602Z,82.84
2019-01-26T10:19:23.615Z,82.46
2019-01-26T10:20:23.633Z,82.84
2019-01-26T10:21:23.647Z,82.84
2019-01-26T10:22:23.402Z,83.12
2019-01-26T10:23:23.728Z,82.65
2019-01-26T10:24:23.436Z,82.55
2019-01-26T10:25:23.452Z,82.65
2019-01-26T10:26:23.469Z,82.84
2019-01-26T10:27:23.494Z,82.55
2019-01-26T10:28:23.810Z,83.03
2019-01-26T10:29:23.515Z,82.55
2019-01-26T10:30:23.529Z,82.17
2019-01-26T10:31:23.551Z,82.27
2019-01-26T10:32:23.564Z,82.17
2019-01-26T10:33:23.585Z,82.17
2019-01-26T10:34:23.851Z,82.36
2019-01-26T10:35:23.609Z,82.36
2019-01-26T10:36:23.626Z,81.98
2019-01-26T10:37:23.899Z,82.27
2019-01-26T10:38:23.655Z,82.36
2019-01-26T10:39:23.932Z,82.17
2019-01-26T10:40:23.689Z,82.46
2019-01-26T10:41:23.708Z,82.08
2019-01-26T10:42:23.720Z,81.98
2019-01-26T10:43:24.046Z,82.27
2019-01-26T10:44:23.757Z,82.27
2019-01-26T10:45:23.772Z,82.93
2019-01-26T10:46:24.047Z,82.27
2019-01-26T10:47:23.802Z,82.93
2019-01-26T10:48:24.126Z,82.84
2019-01-26T10:49:23.838Z,82.36
2019-01-26T10:50:23.846Z,82.46
2019-01-26T10:51:24.121Z,82.84
2019-01-26T10:52:23.880Z,82.36
2019-01-26T10:53:24.154Z,82.74
2019-01-26T10:54:24.169Z,82.74
2019-01-26T10:55:23.926Z,82.36
2019-01-26T10:56:24.208Z,82.65
2019-01-26T10:57:23.957Z,82.93
2019-01-26T10:58:23.973Z,83.59
2019-01-26T10:59:24.249Z,82.74
2019-01-26T11:00:24.015Z,82.84
2019-01-26T11:01:24.281Z,82.46
2019-01-26T11:02:24.303Z,82.93
2019-01-26T11:03:24.055Z,83.22
2019-01-26T11:04:24.071Z,83.31
2019-01-26T11:05:24.343Z,82.84
2019-01-26T11:06:24.102Z,83.4
2019-01-26T11:07:24.119Z,82.93
2019-01-26T11:08:24.393Z,82.55
2019-01-26T11:09:24.150Z,82.65
2019-01-26T11:10:24.168Z,82.46
2019-01-26T11:11:24.184Z,82.55
2019-01-26T11:12:24.474Z,82.55
2019-01-26T11:13:24.215Z,82.27
2019-01-26T11:14:24.503Z,82.27
2019-01-26T11:15:24.505Z,82.65
2019-01-26T11:16:24.263Z,82.84
2019-01-26T11:17:24.281Z,83.12
2019-01-26T11:18:24.558Z,83.31
2019-01-26T11:19:24.309Z,83.4
2019-01-26T11:20:24.588Z,83.4
2019-01-26T11:21:25.391Z,83.22
2019-01-26T11:22:24.618Z,83.59
2019-01-26T11:23:24.424Z,83.59
2019-01-26T11:24:24.651Z,83.31
2019-01-26T11:25:24.681Z,83.59
2019-01-26T11:26:24.427Z,83.59
2019-01-26T11:27:24.440Z,83.4
2019-01-26T11:28:24.458Z,83.54
2019-01-26T11:29:24.728Z,82.74
2019-01-26T11:30:24.747Z,83.31
2019-01-26T11:31:24.503Z,82.97
2019-01-26T11:32:24.517Z,82.65
2019-01-26T11:33:24.793Z,82.74
2019-01-26T11:34:24.830Z,82.69
2019-01-26T11:35:24.828Z,83.4
2019-01-26T11:36:24.593Z,83.36
2019-01-26T11:37:24.858Z,83.22
2019-01-26T11:38:24.937Z,83.64
2019-01-26T11:39:24.741Z,83.59
2019-01-26T11:40:24.659Z,82.97
2019-01-26T11:41:24.666Z,82.84
2019-01-26T11:42:24.938Z,82.17
2019-01-26T11:43:25.004Z,82.31
2019-01-26T11:44:24.709Z,82.59
2019-01-26T11:45:24.765Z,82.84
2019-01-26T11:46:25.016Z,82.74
2019-01-26T11:47:25.018Z,82.84
2019-01-26T11:48:24.777Z,82.93
2019-01-26T11:49:24.791Z,83.36
2019-01-26T11:50:25.066Z,83.4
2019-01-26T11:51:24.827Z,83.16
2019-01-26T11:52:24.839Z,83.16
2019-01-26T11:53:25.116Z,83.36
2019-01-26T11:54:25.130Z,83.07
2019-01-26T11:55:24.887Z,83.36
2019-01-26T11:56:24.909Z,83.31
2019-01-26T11:57:25.177Z,83.36
2019-01-26T11:58:24.940Z,83.45
2019-01-26T11:59:24.958Z,83.36
2019-01-26T12:00:25.226Z,83.64
2019-01-26T12:01:25.243Z,83.54
2019-01-26T12:02:32.056Z,82.5
2019-01-26T12:03:25.278Z,82.59
2019-01-26T12:04:25.296Z,82.97
2019-01-26T12:05:25.308Z,82.69
2019-01-26T12:06:26.165Z,82.69
2019-01-26T12:07:25.339Z,82.55
2019-01-26T12:08:25.364Z,82.59
2019-01-26T12:09:25.113Z,82.69
2019-01-26T12:10:25.386Z,82.78
2019-01-26T12:11:25.402Z,82.78
2019-01-26T12:12:25.431Z,83.26
2019-01-26T12:13:25.433Z,83.54
2019-01-26T12:14:25.191Z,83.36
2019-01-26T12:15:25.211Z,83.54
2019-01-26T12:16:29.648Z,83.45
2019-01-26T12:17:25.499Z,83.54
2019-01-26T12:18:25.263Z,83.54
2019-01-26T12:19:25.283Z,83.07
2019-01-26T12:20:25.547Z,83.54
2019-01-26T12:21:25.561Z,83.26
2019-01-26T12:22:25.579Z,83.07
2019-01-26T12:23:25.336Z,82.78
2019-01-26T12:24:25.611Z,82.88
2019-01-26T12:25:25.369Z,82.31
2019-01-26T12:26:25.392Z,82.31
2019-01-26T12:27:25.400Z,82.69
2019-01-26T12:28:25.678Z,82.78
2019-01-26T12:29:25.435Z,83.36
2019-01-26T12:30:26.418Z,83.16
2019-01-26T12:31:25.463Z,82.78
2019-01-26T12:32:25.748Z,83.64
2019-01-26T12:33:25.494Z,83.54
2019-01-26T12:34:25.782Z,83.45
2019-01-26T12:35:25.528Z,83.64
2019-01-26T12:36:25.805Z,83.45
2019-01-26T12:37:25.562Z,83.54
2019-01-26T12:38:25.579Z,83.83
2019-01-26T12:39:25.593Z,83.73
2019-01-26T12:40:25.866Z,83.73
2019-01-26T12:41:25.887Z,84.4
2019-01-26T12:42:25.647Z,84.21
2019-01-26T12:43:25.659Z,84.3
2019-01-26T12:44:25.947Z,83.64
2019-01-26T12:45:25.948Z,84.11
2019-01-26T12:46:25.976Z,84.59
2019-01-26T12:47:25.719Z,83.26
2019-01-26T12:48:26.005Z,83.64
2019-01-26T12:49:31.982Z,84.01
2019-01-26T12:50:25.771Z,83.64
2019-01-26T12:51:25.785Z,83.73
2019-01-26T12:52:25.806Z,83.26
2019-01-26T12:53:26.075Z,84.4
2019-01-26T12:54:26.103Z,84.4
2019-01-26T12:55:25.849Z,84.01
2019-01-26T12:56:25.881Z,83.36
2019-01-26T12:57:25.883Z,83.45